TimeEST,TemperatureF,Dew PointF,Humidity,Sea Level PressureIn,VisibilityMPH,Wind Direction,Wind SpeedMPH,Gust SpeedMPH,PrecipitationIn,Events,Conditions,WindDirDegrees,DateUTC
12:15 AM,37.4,37.4,100,29.94,0.2,Calm,Calm,-,N/A,Fog,Fog,0,2013-12-30 05:15:00
12:35 AM,37.4,37.4,100,29.94,0.2,Calm,Calm,-,N/A,Fog,Fog,0,2013-12-30 05:35:00
12:55 AM,36.5,36.5,100,29.95,0.2,Calm,Calm,-,N/A,Fog,Fog,0,2013-12-30 05:55:00
1:15 AM,35.6,35.6,100,29.95,0.2,Calm,Calm,-,N/A,Fog,Fog,0,2013-12-30 06:15:00
1:35 AM,35.4,35.4,100,29.96,0.5,Calm,Calm,-,N/A,Fog,Fog,0,2013-12-30 06:35:00
1:55 AM,34.0,34.0,100,29.95,1.2,Calm,Calm,-,N/A,,Overcast,0,2013-12-30 06:55:00
2:15 AM,33.3,33.3,100,29.96,0.8,Calm,Calm,-,N/A,,Overcast,0,2013-12-30 07:15:00
2:35 AM,34.0,34.0,100,29.97,10.0,Calm,Calm,-,N/A,,Scattered Clouds,0,2013-12-30 07:35:00
2:55 AM,32.9,32.9,100,29.97,10.0,Calm,Calm,-,N/A,,Clear,0,2013-12-30 07:55:00
3:55 AM,32.2,32.2,100,29.99,10.0,Calm,Calm,-,N/A,,Clear,0,2013-12-30 08:55:00
4:15 AM,32.4,32.4,100,29.98,10.0,Calm,Calm,-,N/A,,Clear,0,2013-12-30 09:15:00
4:35 AM,32.0,32.0,100,29.97,10.0,Calm,Calm,-,N/A,,Clear,0,2013-12-30 09:35:00
4:55 AM,32.9,32.9,100,29.97,10.0,Calm,Calm,-,N/A,,Clear,0,2013-12-30 09:55:00
5:15 AM,32.0,32.0,100,29.98,10.0,Calm,Calm,-,N/A,,Clear,0,2013-12-30 10:15:00
5:35 AM,32.0,32.0,100,29.98,10.0,Calm,Calm,-,N/A,,Clear,0,2013-12-30 10:35:00
5:55 AM,32.0,32.0,100,29.99,10.0,Calm,Calm,-,N/A,,Clear,0,2013-12-30 10:55:00
6:15 AM,32.0,32.0,100,29.99,7.0,Calm,Calm,-,N/A,,Clear,0,2013-12-30 11:15:00
6:35 AM,31.1,31.1,100,30.00,10.0,Calm,Calm,-,N/A,,Clear,0,2013-12-30 11:35:00
6:55 AM,31.6,31.6,100,30.01,7.0,Calm,Calm,-,N/A,,Clear,0,2013-12-30 11:55:00
7:15 AM,31.1,31.1,100,30.02,10.0,Calm,Calm,-,N/A,,Clear,0,2013-12-30 12:15:00
7:35 AM,31.1,31.1,100,30.03,10.0,Calm,Calm,-,N/A,,Clear,0,2013-12-30 12:35:00
7:55 AM,31.6,31.6,100,30.04,10.0,Calm,Calm,-,N/A,,Clear,0,2013-12-30 12:55:00
8:15 AM,32.0,32.0,100,30.04,10.0,Calm,Calm,-,N/A,,Clear,0,2013-12-30 13:15:00
8:35 AM,33.4,33.4,100,30.04,10.0,Calm,Calm,-,N/A,,Clear,0,2013-12-30 13:35:00
8:55 AM,37.6,37.6,100,30.04,7.0,Calm,Calm,-,N/A,,Clear,0,2013-12-30 13:55:00
9:15 AM,40.1,40.1,100,30.06,10.0,Calm,Calm,-,N/A,,Clear,0,2013-12-30 14:15:00
9:35 AM,42.1,41.9,99,30.08,10.0,Calm,Calm,-,N/A,,Clear,0,2013-12-30 14:35:00
9:55 AM,44.4,42.6,93,30.08,10.0,Calm,Calm,-,N/A,,Clear,0,2013-12-30 14:55:00
10:15 AM,45.3,43.0,92,30.09,10.0,Calm,Calm,-,N/A,,Clear,0,2013-12-30 15:15:00
10:35 AM,45.9,43.2,90,30.09,10.0,Calm,Calm,-,N/A,,Clear,0,2013-12-30 15:35:00
10:55 AM,47.8,43.3,84,30.09,10.0,Calm,Calm,-,N/A,,Clear,0,2013-12-30 15:55:00
11:15 AM,49.1,41.5,75,30.08,10.0,Calm,Calm,-,N/A,,Clear,0,2013-12-30 16:15:00
11:35 AM,50.0,40.5,70,30.06,10.0,Calm,Calm,-,N/A,,Clear,0,2013-12-30 16:35:00
11:55 AM,51.4,39.6,64,30.06,10.0,Calm,Calm,-,N/A,,Clear,0,2013-12-30 16:55:00
12:15 PM,52.0,38.5,60,30.06,10.0,WSW,5.8,-,N/A,,Clear,250,2013-12-30 17:15:00
12:35 PM,52.2,38.8,60,30.06,10.0,West,3.5,-,N/A,,Clear,270,2013-12-30 17:35:00
12:55 PM,52.9,39.4,60,30.05,10.0,WNW,3.5,-,N/A,,Clear,290,2013-12-30 17:55:00
1:15 PM,52.3,38.8,60,30.06,10.0,West,3.5,-,N/A,,Scattered Clouds,270,2013-12-30 18:15:00
1:35 PM,52.3,38.3,59,30.06,10.0,Calm,Calm,-,N/A,,Scattered Clouds,0,2013-12-30 18:35:00
1:55 PM,52.2,37.9,58,30.06,10.0,West,3.5,-,N/A,,Scattered Clouds,280,2013-12-30 18:55:00
2:15 PM,51.4,37.9,60,30.06,10.0,WNW,4.6,-,N/A,,Scattered Clouds,290,2013-12-30 19:15:00
2:35 PM,51.6,38.8,62,30.06,10.0,Calm,Calm,-,N/A,,Clear,0,2013-12-30 19:35:00
2:55 PM,51.8,39.2,62,30.06,10.0,Calm,Calm,-,N/A,,Clear,0,2013-12-30 19:55:00
3:15 PM,51.3,38.7,62,30.06,10.0,Calm,Calm,-,N/A,,Clear,0,2013-12-30 20:15:00
3:35 PM,51.3,39.4,64,30.07,10.0,Calm,Calm,-,N/A,,Clear,0,2013-12-30 20:35:00
3:55 PM,50.9,38.7,63,30.07,10.0,Calm,Calm,-,N/A,,Clear,0,2013-12-30 20:55:00
4:15 PM,49.5,41.2,73,30.07,10.0,Calm,Calm,-,N/A,,Clear,0,2013-12-30 21:15:00
4:35 PM,47.8,42.8,83,30.08,10.0,Calm,Calm,-,N/A,,Clear,0,2013-12-30 21:35:00
4:55 PM,46.8,43.0,87,30.07,10.0,Calm,Calm,-,N/A,,Clear,0,2013-12-30 21:55:00
5:15 PM,45.5,42.6,90,30.07,10.0,Calm,Calm,-,N/A,,Clear,0,2013-12-30 22:15:00
5:35 PM,44.6,42.4,92,30.09,10.0,Calm,Calm,-,N/A,,Clear,0,2013-12-30 22:35:00
5:55 PM,43.2,42.3,97,30.09,10.0,Calm,Calm,-,N/A,,Clear,0,2013-12-30 22:55:00
6:15 PM,43.3,42.6,97,30.09,10.0,Calm,Calm,-,N/A,,Mostly Cloudy,0,2013-12-30 23:15:00
6:35 PM,42.4,41.9,98,30.08,10.0,Calm,Calm,-,N/A,,Mostly Cloudy,0,2013-12-30 23:35:00
6:55 PM,42.1,41.7,99,30.08,10.0,Calm,Calm,-,N/A,,Clear,0,2013-12-30 23:55:00
7:15 PM,41.7,40.3,95,30.09,10.0,Calm,Calm,-,N/A,,Scattered Clouds,0,2013-12-31 00:15:00
7:35 PM,42.1,41.0,96,30.11,10.0,Calm,Calm,-,N/A,,Mostly Cloudy,0,2013-12-31 00:35:00
7:55 PM,42.3,40.8,95,30.11,10.0,Calm,Calm,-,N/A,,Overcast,0,2013-12-31 00:55:00
8:15 PM,43.3,40.1,88,30.12,10.0,North,6.9,-,N/A,,Overcast,10,2013-12-31 01:15:00
8:35 PM,44.6,37.8,77,30.13,10.0,NNE,5.8,-,N/A,,Overcast,20,2013-12-31 01:35:00
8:55 PM,44.4,37.4,76,30.13,10.0,NNE,4.6,-,N/A,,Overcast,20,2013-12-31 01:55:00
9:15 PM,43.9,36.9,76,30.13,10.0,NNE,4.6,-,N/A,,Overcast,20,2013-12-31 02:15:00
9:35 PM,43.7,36.1,75,30.13,10.0,NNE,3.5,-,N/A,,Overcast,20,2013-12-31 02:35:00
9:55 PM,43.2,36.1,76,30.12,10.0,NE,3.5,-,N/A,,Overcast,40,2013-12-31 02:55:00
10:15 PM,42.8,35.6,76,30.12,10.0,NNE,6.9,-,N/A,,Overcast,20,2013-12-31 03:15:00
10:35 PM,41.9,35.1,77,30.13,10.0,Calm,Calm,-,N/A,,Mostly Cloudy,0,2013-12-31 03:35:00
10:55 PM,41.2,35.1,79,30.13,10.0,Calm,Calm,-,N/A,,Scattered Clouds,0,2013-12-31 03:55:00
11:15 PM,41.0,34.9,79,30.13,10.0,Calm,Calm,-,N/A,,Mostly Cloudy,0,2013-12-31 04:15:00
11:35 PM,41.0,34.2,77,30.13,10.0,Calm,Calm,-,N/A,,Overcast,0,2013-12-31 04:35:00
11:55 PM,41.2,34.0,76,30.12,10.0,NE,4.6,-,N/A,,Overcast,40,2013-12-31 04:55:00